WEATHER DATA

YESTERDAY
Time Temp. Dewp. Hum. Wind dir Wind speed Wind gust Bar. 1h Prec. 24h Prec.
00:08 15.5 9 65 315 0.3 0.8 1037.6 0.0000 0.0000
00:18 15.4 9.1 66 306 0.6 1.4 1037.7 0.0000 0.0000
00:39 15.2 8.9 66 326 0.3 1.4 1037.7 0.0000 0.0000
00:43 15.2 8.9 66 5 0.6 1.1 1037.7 0.0000 0.0000
00:52 15.1 8.8 66 18 0.3 1.1 1037.8 0.0000 0.0000
01:03 15 8.9 67 20 0.3 1.7 1037.9 0.0000 0.0000
01:13 14.9 8.8 67 26 0.3 1.4 1037.9 0.0000 0.0000
01:23 14.7 8.6 67 29 0.3 1.1 1037.9 0.0000 0.0000
01:33 14.6 8.5 67 40 0.3 0.8 1037.9 0.0000 0.0000
01:43 14.5 8.5 67 37 0.3 0.8 1037.9 0.0000 0.0000
01:53 14.4 8.6 68 41 0.3 0.8 1037.9 0.0000 0.0000
02:03 14.4 8.6 68 45 0.3 1.1 1037.9 0.0000 0.0000
02:13 14.2 8.4 68 49 0.3 0.8 1038 0.0000 0.0000
02:24 14 8.2 68 49 0.3 0.8 1038 0.0000 0.0000
02:33 13.7 7.9 68 55 0.3 0.6 1038 0.0000 0.0000
02:43 13.3 7.5 68 54 0.3 0.6 1038 0.0000 0.0000
02:54 13 7.5 69 51 0.3 0.6 1038 0.0000 0.0000
03:04 12.7 7.2 69 52 0.3 0.6 1037.9 0.0000 0.0000
03:14 12.5 7 69 55 0.3 0.6 1038 0.0000 0.0000
03:24 12.4 6.9 69 50 0.3 0.6 1038 0.0000 0.0000
03:34 12.3 7 70 49 0.3 0.6 1038 0.0000 0.0000
03:44 12.1 6.8 70 26 0.3 0.6 1038.2 0.0000 0.0000
03:54 12.1 6.8 70 90 0.3 0.6 1038.1 0.0000 0.0000
04:05 12.1 7 71 90 0.3 0.6 1038.2 0.0000 0.0000
04:14 12.2 7.1 71 60 0.3 0.6 1038.3 0.0000 0.0000
04:24 12.3 7.2 71 57 0.3 0.6 1038.2 0.0000 0.0000
04:34 12.4 7.5 72 90 0.3 0.8 1038.2 0.0000 0.0000
04:45 12.5 7.6 72 153 0.3 0.6 1038.3 0.0000 0.0000
04:55 12.6 7.7 72 45 0.3 0.6 1038.3 0.0000 0.0000
05:04 12.6 7.9 73 53 0.3 0.6 1038.5 0.0000 0.0000
05:15 12.7 8 73 90 0.3 0.8 1038.4 0.0000 0.0000
05:25 12.7 8 73 90 0.3 0.6 1038.4 0.0000 0.0000
05:35 12.8 8.1 73 90 0.3 0.6 1038.4 0.0000 0.0000
05:45 12.7 8 73 55 0.3 0.6 1038.5 0.0000 0.0000
05:55 12.4 7.9 74 45 0.3 0.6 1038.4 0.0000 0.0000
06:05 12.1 7.6 74 45 0.3 0.6 1038.5 0.0000 0.0000
06:15 12 7.5 74 90 0.3 0.6 1038.5 0.0000 0.0000
06:26 11.8 7.3 74 135 0.3 0.6 1038.5 0.0000 0.0000
06:36 11.8 7.3 74 45 0.3 0.6 1038.6 0.0000 0.0000
06:45 11.8 7.5 75 21 0.3 0.8 1038.7 0.0000 0.0000
06:55 12 7.7 75 54 0.3 0.6 1038.8 0.0000 0.0000
07:06 12 7.7 75 153 0.3 0.6 1038.9 0.0000 0.0000
07:16 12.2 8.1 76 29 0.3 0.8 1038.9 0.0000 0.0000
07:25 12.5 8.4 76 40 0.3 0.8 1039.1 0.0000 0.0000
07:36 13 8.9 76 36 0.3 0.8 1039.2 0.0000 0.0000
07:46 13.4 9.5 77 9 0.3 1.1 1039.2 0.0000 0.0000
07:52 13.7 9.7 77 344 0.3 0.8 1039.3 0.0000 0.0000
08:02 14.1 10.1 77 22 0.3 1.1 1039.3 0.0000 0.0000
08:11 14.5 10.5 77 304 0.3 0.8 1039.4 0.0000 0.0000
08:28 15.5 11.7 78 34 0.6 1.7 1039.4 0.0000 0.0000
08:38 16.2 12.4 78 41 0.6 1.7 1039.4 0.0000 0.0000
08:47 16.7 12.7 77 37 0.6 1.1 1039.4 0.0000 0.0000
08:58 16.9 12.8 77 39 1.1 2.8 1039.5 0.0000 0.0000
09:08 17.1 12.8 76 30 0.6 1.7 1039.5 0.0000 0.0000
09:18 17.4 13.1 76 40 0.6 2.2 1039.5 0.0000 0.0000
09:28 17.6 13.1 75 38 1.1 2.8 1039.6 0.0000 0.0000
09:36 17.9 13.4 75 40 0.6 1.4 1039.6 0.0000 0.0000
09:46 18.2 13.7 75 25 0.8 2.2 1039.6 0.0000 0.0000
09:56 18.4 13.7 74 30 0.8 2.2 1039.7 0.0000 0.0000
10:37 19.4 14.2 72 28 0.6 1.4 1039.9 0.0000 0.0000
10:46 19.9 14.5 71 18 0.6 1.7 1039.8 0.0000 0.0000
10:56 20.1 14.5 70 33 0.8 1.9 1039.8 0.0000 0.0000
11:07 20.1 14.5 70 33 0.8 2.5 1039.8 0.0000 0.0000
11:17 20.2 14.3 69 35 0.8 2.5 1039.7 0.0000 0.0000
11:27 20.6 14.5 68 39 0.8 2.5 1039.8 0.0000 0.0000
11:37 20.1 14 68 34 0.6 1.9 1039.8 0.0000 0.0000
11:47 20.4 14.1 67 42 0.6 2.2 1039.8 0.0000 0.0000
11:57 20.2 13.9 67 34 0.6 1.7 1039.8 0.0000 0.0000
12:07 20.3 13.7 66 39 0.6 2.5 1039.8 0.0000 0.0000
12:18 20.8 14.2 66 35 1.1 3.6 1039.8 0.0000 0.0000
12:27 20.6 13.8 65 32 1.1 2.2 1039.8 0.0000 0.0000
12:37 20.8 14 65 42 0.8 2.2 1039.8 0.0000 0.0000
12:48 21.3 14.2 64 34 0.8 2.2 1039.8 0.0000 0.0000
12:57 21.6 14.5 64 30 0.6 1.7 1039.8 0.0000 0.0000
13:08 22 14.6 63 41 0.8 2.8 1039.8 0.0000 0.0000
13:17 22.4 15 63 41 0.8 2.5 1039.7 0.0000 0.0000
13:28 22.5 14.9 62 17 0.8 1.9 1039.8 0.0000 0.0000
13:38 22.4 14.8 62 32 0.8 2.2 1039.7 0.0000 0.0000
13:48 22.7 14.8 61 0 0.6 1.7 1039.6 0.0000 0.0000
13:58 22.5 14.4 60 33 1.1 2.2 1039.6 0.0000 0.0000
14:08 22.6 14.4 60 36 0.8 1.9 1039.6 0.0000 0.0000
14:18 22.7 14.5 60 60 0.8 2.5 1039.5 0.0000 0.0000
14:28 22.9 14.5 59 41 0.6 1.9 1039.5 0.0000 0.0000
14:39 22.9 14.5 59 27 1.4 2.8 1039.5 0.0000 0.0000
14:49 22.8 14.1 58 29 1.4 3.3 1039.5 0.0000 0.0000
14:58 22.9 14.2 58 22 0.8 2.5 1039.4 0.0000 0.0000
15:09 23.1 14.4 58 23 0.8 2.2 1039.4 0.0000 0.0000
15:19 23.3 14.6 58 27 1.1 2.2 1039.3 0.0000 0.0000
15:29 23.4 14.4 57 40 0.8 2.2 1039.3 0.0000 0.0000
15:39 23.6 14.6 57 27 0.6 1.7 1039.2 0.0000 0.0000
15:49 23.5 14.5 57 33 0.8 1.9 1039.1 0.0000 0.0000
15:59 23.6 14.3 56 32 0.8 2.8 1039.1 0.0000 0.0000
16:09 23.5 14.2 56 33 1.1 3.3 1039.1 0.0000 0.0000
16:19 23.6 14.3 56 21 1.1 2.8 1039 0.0000 0.0000
16:30 23.5 14.2 56 32 1.1 2.8 1039 0.0000 0.0000
16:49 23.8 14.5 56 40 1.1 3.1 1039 0.0000 0.0000
17:00 23.4 13.9 55 39 0.8 2.5 1039 0.0000 0.0000
17:19 23.5 13.9 55 28 1.7 3.6 1039 0.0000 0.0000
17:29 23.2 13.7 55 30 1.1 3.3 1039.1 0.0000 0.0000
17:40 23.1 13.6 55 39 1.1 2.5 1039 0.0000 0.0000
17:50 23.2 13.7 55 32 1.1 3.1 1039.1 0.0000 0.0000
18:00 22.8 13.3 55 28 0.8 3.1 1039.1 0.0000 0.0000
18:10 22.7 13.2 55 36 1.1 2.2 1039.2 0.0000 0.0000
18:20 22.7 13.2 55 33 0.8 2.8 1039.2 0.0000 0.0000
18:30 22.7 13.2 55 34 0.8 2.8 1039.2 0.0000 0.0000
18:40 22.6 13.1 55 32 1.1 2.5 1039.2 0.0000 0.0000
19:00 22.3 12.8 55 28 1.1 2.8 1039.2 0.0000 0.0000
19:10 22 12.6 55 32 1.1 2.8 1039.2 0.0000 0.0000
19:21 21.8 12.4 55 36 1.1 2.5 1039.4 0.0000 0.0000
19:31 21.5 12.1 55 33 1.1 2.5 1039.4 0.0000 0.0000
19:41 21.3 11.9 55 20 1.1 2.5 1039.4 0.0000 0.0000
20:01 20.8 11.4 55 19 1.1 2.2 1039.5 0.0000 0.0000
20:11 20.6 11.3 55 32 0.8 1.9 1039.5 0.0000 0.0000
20:31 19.8 10.5 55 29 1.1 2.2 1039.6 0.0000 0.0000
20:42 19.3 10.3 56 35 1.1 3.1 1039.7 0.0000 0.0000
21:01 18.5 9.6 56 30 0.8 2.5 1039.8 0.0000 0.0000
21:11 18 9.1 56 33 0.8 1.9 1039.9 0.0000 0.0000
21:32 17.2 8.6 57 30 0.8 1.9 1039.8 0.0000 0.0000
21:41 16.8 8.2 57 29 0.6 1.7 1039.9 0.0000 0.0000
21:52 16.5 8.2 58 34 0.6 1.4 1039.9 0.0000 0.0000
22:02 16.2 7.9 58 27 0.6 0.8 1040 0.0000 0.0000
22:12 15.9 7.9 59 27 0.6 1.1 1040 0.0000 0.0000
22:22 15.6 7.6 59 36 0.6 1.4 1040 0.0000 0.0000
22:32 15.4 7.4 59 38 0.3 1.4 1040 0.0000 0.0000
22:42 15.1 7.4 60 34 0.3 0.8 1039.9 0.0000 0.0000
23:03 14.5 7.1 61 40 0.3 0.6 1039.8 0.0000 0.0000
23:13 14.3 6.9 61 40 0.3 0.6 1039.8 0.0000 0.0000
23:22 14.1 6.7 61 25 0.3 0.6 1039.8 0.0000 0.0000
23:32 13.9 6.7 62 34 0.3 0.8 1039.7 0.0000 0.0000
23:49 13.8 6.9 63 45 0.3 0.8 1039.8 0.0000 0.0000

DAY STATISTIC

2020-05-25
TEMPERATURE
AVERAGE
17.6
HIGH
23.8
16:49
LOW
11.8
06:26
PRESSURE
AVERAGE
1039.1
HIGH
1040.0
22:02
LOW
1037.6
00:08
DEWPOINT
AVERAGE
10.9
HIGH
15.0
13:17
LOW
6.7
23:22
HUMIDITY
AVERAGE
65
HIGH
78
08:28
LOW
55
17:00
WIND SPEED
AVERAGE
0.6
HIGH
1.7
17:19
WIND GUST
AVERAGE
1.6
HIGH
3.6
12:18
WIND DIRECTION
PREVAILING
NE
78.5%
N
10.8
NE
78.5
E
5.4
SE
2.3
S
0.0
SW
0.0
W
0.0
NW
3.1
PRECIPITATION
RAIN HOUR
0.0
RAIN DAY
0.0
TEMPERATURE (°C)
LOW
11.8
HIGH
23.8
AVERAGE
17.6
PRESSURE (hpa)
LOW
1037.6
HIGH
1040.0
AVERAGE
1039.1
DEVICE